Marathon, Florida
Current Conditions -  °F | °C
As of 4:53 AM on Monday 22 Dec 2014 (Local Time) from KMTH Reporting Station
Broken Clouds Broken Clouds  
Wind Chill: 74°   Ceiling: 11000
Heat Index: 74°   Visibility: 10mi
Dew Point: 69°   Wind: 5mph
Humidity: 85%   Direction: 150°SSE
Pressure: 30"   Gusts: NA
Location:  24.73°N, 81.04°W
Report Text: KMTH 220953Z AUTO 15004KT 10SM FEW024 BKN110 23/21 A3000 RMK AO2 SLP158 T02330206 $
Loading
Personal Weather Stations






























Interactive Weather Map New forecast layout! Learn more

10-Day Weather Forecast

Advertisements
Track Severe Weather on mobile